createdAt,value
2022-11-03T00:00:16.215Z,3.05
2022-11-03T00:02:42.610Z,2.83
2022-11-03T00:05:08.972Z,2.92
2022-11-03T00:07:35.311Z,3.13
2022-11-03T00:10:01.582Z,3.17
2022-11-03T00:12:27.948Z,3.05
2022-11-03T00:14:54.359Z,2.70
2022-11-03T00:17:20.629Z,2.85
2022-11-03T00:19:46.886Z,2.83
2022-11-03T00:22:13.200Z,3.00
2022-11-03T00:24:39.494Z,3.20
2022-11-03T00:27:05.764Z,2.72
2022-11-03T00:29:32.022Z,2.97
2022-11-03T00:31:58.302Z,2.80
2022-11-03T00:34:24.652Z,2.78
2022-11-03T00:36:50.952Z,3.00
2022-11-03T00:39:17.298Z,2.90
2022-11-03T00:41:43.536Z,2.60
2022-11-03T00:44:09.871Z,2.88
2022-11-03T00:46:36.169Z,2.53
2022-11-03T00:49:02.472Z,2.70
2022-11-03T00:51:28.795Z,2.75
2022-11-03T00:53:55.185Z,2.63
2022-11-03T00:56:21.470Z,2.80
2022-11-03T00:58:47.938Z,2.60
2022-11-03T01:01:14.382Z,2.90
2022-11-03T01:03:40.791Z,2.95
2022-11-03T01:06:07.115Z,2.65
2022-11-03T01:08:33.707Z,2.60
2022-11-03T01:11:00.192Z,3.65
2022-11-03T01:13:26.684Z,3.03
2022-11-03T01:15:53.149Z,3.10
2022-11-03T01:18:19.533Z,2.67
2022-11-03T01:20:45.958Z,2.72
2022-11-03T01:23:12.235Z,2.88
2022-11-03T01:25:38.526Z,3.28
2022-11-03T01:30:36.082Z,3.00
2022-11-03T01:33:02.725Z,2.80
2022-11-03T01:35:29.133Z,2.85
2022-11-03T01:37:55.568Z,2.75
2022-11-03T01:40:21.934Z,2.92
2022-11-03T01:42:48.368Z,2.75
2022-11-03T01:45:14.671Z,2.72
2022-11-03T01:47:41.242Z,2.90
2022-11-03T01:50:07.583Z,2.58
2022-11-03T01:52:34.101Z,3.20
2022-11-03T01:55:00.401Z,2.65
2022-11-03T01:57:26.924Z,3.10
2022-11-03T01:59:53.248Z,2.85
2022-11-03T02:02:19.650Z,2.83
2022-11-03T02:04:45.939Z,2.40
2022-11-03T02:07:12.431Z,3.05
2022-11-03T02:09:39.585Z,2.88
2022-11-03T02:12:06.148Z,2.75
2022-11-03T02:14:32.497Z,2.75
2022-11-03T02:16:59.961Z,2.70
2022-11-03T02:19:26.465Z,2.40
2022-11-03T02:21:52.758Z,3.08
2022-11-03T02:24:19.052Z,2.90
2022-11-03T02:26:45.425Z,2.80
2022-11-03T02:29:11.892Z,2.85
2022-11-03T02:31:38.209Z,2.90
2022-11-03T02:34:04.682Z,2.60
2022-11-03T02:36:30.963Z,2.88
2022-11-03T02:38:57.468Z,2.53
2022-11-03T02:41:23.888Z,2.65
2022-11-03T02:43:50.514Z,2.88
2022-11-03T02:46:17.004Z,2.53
2022-11-03T02:48:43.355Z,2.75
2022-11-03T02:51:09.724Z,2.67
2022-11-03T02:53:36.070Z,2.55
2022-11-03T02:56:02.783Z,2.72
2022-11-03T02:58:29.105Z,2.65
2022-11-03T03:00:55.435Z,2.80
2022-11-03T03:03:21.903Z,3.03
2022-11-03T03:05:48.359Z,2.72
2022-11-03T03:08:14.851Z,2.58
2022-11-03T03:10:41.186Z,2.55
2022-11-03T03:13:08.415Z,2.70
2022-11-03T03:15:35.042Z,2.50
2022-11-03T03:18:01.444Z,2.60
2022-11-03T03:20:27.718Z,2.90
2022-11-03T03:22:54.083Z,3.00
2022-11-03T03:25:20.381Z,2.80
2022-11-03T03:27:46.806Z,2.92
2022-11-03T03:30:13.140Z,2.72
2022-11-03T03:32:39.521Z,2.80
2022-11-03T03:35:05.822Z,3.00
2022-11-03T03:37:32.081Z,2.38
2022-11-03T03:39:58.359Z,2.50
2022-11-03T03:42:24.658Z,2.92
2022-11-03T03:44:50.964Z,2.40
2022-11-03T03:47:17.247Z,2.50
2022-11-03T03:49:43.588Z,2.45
2022-11-03T03:52:09.848Z,2.38
2022-11-03T03:54:36.172Z,3.22
2022-11-03T03:57:02.398Z,2.75
2022-11-03T03:59:28.703Z,2.47
2022-11-03T04:01:55.178Z,2.97
2022-11-03T04:04:21.824Z,2.53
2022-11-03T04:06:48.219Z,3.42
2022-11-03T04:09:14.570Z,2.97
2022-11-03T04:11:40.912Z,2.97
2022-11-03T04:14:07.314Z,2.95
2022-11-03T04:16:33.627Z,2.95
2022-11-03T04:18:59.949Z,2.92
2022-11-03T04:21:26.271Z,2.78
2022-11-03T04:23:52.613Z,3.25
2022-11-03T04:26:18.961Z,2.90
2022-11-03T04:28:45.291Z,2.92
2022-11-03T04:31:11.576Z,2.65
2022-11-03T04:33:38.138Z,2.63
2022-11-03T04:36:04.470Z,2.55
2022-11-03T04:38:30.758Z,2.80
2022-11-03T04:40:57.233Z,2.75
2022-11-03T04:43:23.708Z,2.80
2022-11-03T04:45:49.936Z,2.85
2022-11-03T04:48:16.236Z,2.65
2022-11-03T04:50:46.581Z,2.60
2022-11-03T04:53:13.482Z,2.83
2022-11-03T04:55:40.146Z,2.95
2022-11-03T04:58:06.453Z,2.50
2022-11-03T05:00:32.852Z,3.00
2022-11-03T05:02:59.405Z,3.15
2022-11-03T05:05:26.058Z,2.60
2022-11-03T05:07:52.487Z,3.13
2022-11-03T05:10:18.896Z,2.70
2022-11-03T05:12:45.220Z,2.85
2022-11-03T05:15:11.512Z,3.00
2022-11-03T05:17:37.748Z,2.75
2022-11-03T05:20:04.121Z,2.60
2022-11-03T05:22:30.471Z,3.05
2022-11-03T05:24:56.727Z,2.38
2022-11-03T05:27:23.142Z,2.55
2022-11-03T05:29:49.417Z,2.92
2022-11-03T05:32:15.731Z,3.10
2022-11-03T05:34:42.187Z,2.90
2022-11-03T05:37:08.465Z,2.85
2022-11-03T05:39:34.723Z,2.88
2022-11-03T05:42:01.026Z,2.85
2022-11-03T05:44:27.561Z,2.40
2022-11-03T05:46:53.864Z,2.65
2022-11-03T05:49:20.250Z,3.00
2022-11-03T05:51:46.507Z,2.75
2022-11-03T05:54:17.006Z,2.85
2022-11-03T05:56:45.872Z,2.83
2022-11-03T05:59:12.289Z,2.35
2022-11-03T06:01:38.912Z,2.80
2022-11-03T06:04:05.500Z,2.88
2022-11-03T06:06:32.607Z,2.60
2022-11-03T06:08:58.981Z,3.30
2022-11-03T06:11:25.316Z,2.70
2022-11-03T06:13:51.845Z,3.05
2022-11-03T06:16:18.178Z,2.78
2022-11-03T06:18:44.478Z,2.97
2022-11-03T06:21:10.752Z,2.72
2022-11-03T06:23:37.069Z,2.75
2022-11-03T06:26:03.340Z,2.80
2022-11-03T06:28:29.711Z,2.65
2022-11-03T06:30:56.044Z,2.50
2022-11-03T06:33:22.540Z,2.55
2022-11-03T06:35:48.871Z,2.85
2022-11-03T06:38:15.282Z,2.80
2022-11-03T06:40:41.679Z,2.58
2022-11-03T06:43:08.459Z,2.60
2022-11-03T06:45:34.953Z,2.78
2022-11-03T06:48:01.482Z,2.70
2022-11-03T06:50:27.825Z,2.83
2022-11-03T06:52:54.263Z,2.75
2022-11-03T06:55:20.738Z,2.63
2022-11-03T06:57:47.156Z,2.30
2022-11-03T07:00:32.856Z,2.97
2022-11-03T07:02:59.843Z,3.08
2022-11-03T07:05:26.245Z,2.60
2022-11-03T07:07:52.833Z,2.53
2022-11-03T07:10:19.113Z,2.80
2022-11-03T07:12:45.605Z,2.70
2022-11-03T07:15:11.860Z,2.33
2022-11-03T07:17:38.317Z,2.88
2022-11-03T07:20:04.605Z,2.78
2022-11-03T07:22:31.176Z,2.47
2022-11-03T07:24:57.646Z,2.80
2022-11-03T07:27:23.898Z,2.60
2022-11-03T07:29:50.192Z,2.70
2022-11-03T07:32:16.561Z,2.90
2022-11-03T07:34:42.924Z,2.88
2022-11-03T07:37:09.244Z,2.40
2022-11-03T07:39:35.624Z,2.70
2022-11-03T07:42:02.003Z,2.60
2022-11-03T07:44:28.319Z,2.78
2022-11-03T07:46:54.619Z,2.85
2022-11-03T07:49:20.882Z,2.67
2022-11-03T07:51:47.203Z,2.60
2022-11-03T07:54:13.506Z,2.65
2022-11-03T07:56:39.871Z,2.75
2022-11-03T07:59:06.242Z,2.90
2022-11-03T08:01:32.669Z,2.63
2022-11-03T08:03:59.120Z,2.40
2022-11-03T08:06:25.425Z,2.60
2022-11-03T08:08:51.884Z,2.80
2022-11-03T08:11:18.227Z,2.70
2022-11-03T08:13:44.522Z,2.67
2022-11-03T08:16:11.022Z,2.63
2022-11-03T08:18:37.326Z,2.53
2022-11-03T08:21:03.695Z,2.90
2022-11-03T08:23:30.282Z,2.60
2022-11-03T08:25:56.765Z,2.67
2022-11-03T08:28:23.080Z,2.65
2022-11-03T08:30:49.470Z,3.05
2022-11-03T08:33:15.890Z,2.53
2022-11-03T08:35:42.277Z,2.90
2022-11-03T08:38:08.998Z,2.72
2022-11-03T08:40:35.540Z,2.55
2022-11-03T08:43:01.867Z,2.65
2022-11-03T08:45:28.278Z,2.70
2022-11-03T08:47:54.600Z,2.60
2022-11-03T08:50:20.917Z,2.22
2022-11-03T08:52:47.403Z,2.78
2022-11-03T08:55:13.849Z,2.33
2022-11-03T08:57:40.286Z,2.78
2022-11-03T09:00:06.610Z,2.63
2022-11-03T09:02:32.953Z,2.65
2022-11-03T09:04:59.329Z,2.53
2022-11-03T09:10:20.381Z,2.10
2022-11-03T09:12:49.099Z,2.75
2022-11-03T09:15:15.359Z,2.58
2022-11-03T09:17:44.683Z,3.05
2022-11-03T09:20:11.980Z,3.00
2022-11-03T09:22:38.338Z,2.70
2022-11-03T09:25:04.675Z,2.65
2022-11-03T09:27:31.012Z,2.83
2022-11-03T09:30:12.393Z,2.90
2022-11-03T09:32:40.026Z,2.83
2022-11-03T09:35:06.343Z,2.75
2022-11-03T09:37:32.622Z,2.58
2022-11-03T09:39:58.933Z,3.00
2022-11-03T09:42:25.278Z,2.63
2022-11-03T09:44:51.684Z,2.65
2022-11-03T09:47:18.120Z,2.90
2022-11-03T09:49:44.522Z,3.20
2022-11-03T09:52:10.834Z,2.90
2022-11-03T09:54:37.175Z,2.50
2022-11-03T09:57:03.531Z,3.40
2022-11-03T09:59:29.892Z,2.67
2022-11-03T10:01:56.239Z,3.08
2022-11-03T10:04:22.547Z,2.70
2022-11-03T10:06:48.817Z,2.95
2022-11-03T10:09:15.157Z,2.72
2022-11-03T10:11:41.459Z,2.90
2022-11-03T10:14:07.760Z,2.85
2022-11-03T10:16:34.042Z,3.35
2022-11-03T10:19:00.404Z,3.30
2022-11-03T10:21:26.747Z,2.70
2022-11-03T10:23:53.065Z,2.80
2022-11-03T10:26:19.464Z,3.00
2022-11-03T10:28:45.777Z,3.15
2022-11-03T10:31:13.183Z,2.88
2022-11-03T10:33:39.909Z,2.72
2022-11-03T10:36:06.239Z,2.92
2022-11-03T10:38:32.522Z,3.17
2022-11-03T10:40:58.830Z,3.42
2022-11-03T10:43:25.224Z,3.33
2022-11-03T10:45:51.679Z,2.92
2022-11-03T10:48:17.976Z,3.10
2022-11-03T10:50:44.308Z,3.08
2022-11-03T10:53:11.243Z,2.97
2022-11-03T10:58:05.123Z,3.08
2022-11-03T11:00:31.523Z,3.10
2022-11-03T11:02:58.052Z,3.28
2022-11-03T11:05:24.386Z,3.08
2022-11-03T11:07:50.794Z,2.80
2022-11-03T11:10:17.193Z,3.03
2022-11-03T11:12:44.004Z,3.40
2022-11-03T11:15:10.299Z,2.95
2022-11-03T11:17:36.750Z,3.20
2022-11-03T11:20:03.121Z,3.10
2022-11-03T11:22:29.358Z,3.08
2022-11-03T11:24:55.621Z,3.00
2022-11-03T11:27:21.961Z,3.35
2022-11-03T11:29:48.267Z,3.08
2022-11-03T11:32:14.718Z,3.13
2022-11-03T11:34:41.172Z,3.20
2022-11-03T11:37:07.566Z,3.17
2022-11-03T11:39:33.855Z,3.10
2022-11-03T11:42:00.151Z,3.55
2022-11-03T11:44:26.620Z,3.15
2022-11-03T11:46:52.987Z,3.30
2022-11-03T11:49:19.623Z,3.28
2022-11-03T11:51:46.123Z,3.05
2022-11-03T11:54:17.994Z,3.30
2022-11-03T11:56:44.752Z,3.50
2022-11-03T11:59:11.054Z,3.17
2022-11-03T12:01:37.389Z,3.40
2022-11-03T12:04:03.873Z,3.40
2022-11-03T12:06:30.335Z,3.10
2022-11-03T12:08:56.833Z,3.67
2022-11-03T12:11:23.165Z,3.10
2022-11-03T12:13:49.599Z,3.38
2022-11-03T12:16:16.046Z,3.30
2022-11-03T12:18:47.659Z,3.10
2022-11-03T12:21:15.644Z,3.55
2022-11-03T12:23:42.129Z,3.17
2022-11-03T12:26:08.478Z,3.30
2022-11-03T12:28:34.805Z,3.03
2022-11-03T12:33:32.351Z,3.40
2022-11-03T12:35:58.855Z,3.05
2022-11-03T12:38:25.232Z,4.10
2022-11-03T12:40:51.648Z,3.47
2022-11-03T12:43:17.907Z,3.13
2022-11-03T12:45:44.169Z,3.40
2022-11-03T12:48:10.831Z,3.10
2022-11-03T12:50:37.263Z,3.40
2022-11-03T12:53:03.571Z,3.38
2022-11-03T12:55:30.245Z,3.70
2022-11-03T12:57:56.535Z,3.08
2022-11-03T13:00:23.590Z,3.28
2022-11-03T13:02:50.632Z,2.78
2022-11-03T13:05:17.752Z,3.10
2022-11-03T13:07:44.064Z,3.30
2022-11-03T13:10:10.350Z,3.22
2022-11-03T13:12:36.732Z,3.05
2022-11-03T13:15:03.014Z,2.92
2022-11-03T13:17:35.960Z,3.20
2022-11-03T13:20:12.395Z,3.10
2022-11-03T13:22:38.898Z,3.20
2022-11-03T13:25:05.268Z,3.80
2022-11-03T13:27:31.595Z,3.65
2022-11-03T13:29:57.893Z,3.60
2022-11-03T13:32:24.251Z,2.80
2022-11-03T13:34:50.538Z,3.45
2022-11-03T13:37:16.780Z,3.40
2022-11-03T13:39:43.094Z,3.30
2022-11-03T13:42:09.406Z,3.17
2022-11-03T13:44:35.776Z,3.20
2022-11-03T13:47:02.134Z,3.47
2022-11-03T13:50:07.816Z,3.17
2022-11-03T13:52:14.747Z,3.22
2022-11-03T14:00:14.156Z,3.35
2022-11-03T14:05:26.929Z,3.35
2022-11-03T14:07:53.389Z,3.50
2022-11-03T14:10:19.770Z,2.92
2022-11-03T14:12:46.131Z,3.15
2022-11-03T14:15:12.462Z,3.10
2022-11-03T14:17:38.993Z,2.90
2022-11-03T14:20:05.427Z,3.38
2022-11-03T14:22:31.871Z,2.80
2022-11-03T14:24:58.140Z,2.78
2022-11-03T14:27:24.561Z,2.97
2022-11-03T14:29:50.926Z,3.40
2022-11-03T14:32:17.269Z,3.33
2022-11-03T14:34:43.655Z,2.95
2022-11-03T14:37:10.151Z,3.33
2022-11-03T14:39:36.488Z,3.15
2022-11-03T14:42:02.766Z,3.25
2022-11-03T14:44:29.144Z,3.35
2022-11-03T14:46:55.474Z,4.25
2022-11-03T14:49:21.718Z,6.18
2022-11-03T14:51:48.102Z,8.02
2022-11-03T14:54:14.360Z,11.00
2022-11-03T14:56:40.693Z,11.65
2022-11-03T14:59:06.960Z,15.38
2022-11-03T15:01:33.422Z,21.60
2022-11-03T15:03:59.893Z,23.23
2022-11-03T15:06:26.291Z,27.30
2022-11-03T15:08:56.439Z,24.15
2022-11-03T15:11:23.126Z,24.27
2022-11-03T15:13:51.462Z,25.73
2022-11-03T15:16:19.072Z,39.67
2022-11-03T15:18:45.480Z,53.83
2022-11-03T15:21:12.119Z,59.58
2022-11-03T15:26:24.954Z,77.03
2022-11-03T15:28:51.327Z,79.13
2022-11-03T15:31:17.606Z,84.82
2022-11-03T15:33:43.900Z,86.28
2022-11-03T15:36:10.238Z,90.18
2022-11-03T15:38:36.670Z,87.28
2022-11-03T15:41:03.041Z,87.35
2022-11-03T15:43:29.435Z,90.28
2022-11-03T15:45:55.784Z,89.22
2022-11-03T15:48:22.063Z,89.95
2022-11-03T15:50:48.371Z,83.90
2022-11-03T15:53:14.661Z,83.18
2022-11-03T15:55:40.976Z,80.03
2022-11-03T15:58:07.663Z,74.95
2022-11-03T16:00:34.134Z,74.68
2022-11-03T16:03:00.651Z,68.55
2022-11-03T16:05:27.074Z,66.72
2022-11-03T16:07:53.703Z,65.32
2022-11-03T16:10:19.998Z,62.42
2022-11-03T16:12:46.505Z,57.83
2022-11-03T16:15:12.827Z,55.72
2022-11-03T16:17:45.242Z,49.92
2022-11-03T16:20:11.902Z,48.83
2022-11-03T16:22:38.373Z,47.03
2022-11-03T16:25:07.416Z,45.33
2022-11-03T16:27:36.808Z,43.22
2022-11-03T16:30:03.130Z,41.83
2022-11-03T16:32:29.419Z,39.38
2022-11-03T16:34:55.800Z,36.33
2022-11-03T16:37:22.128Z,35.63
2022-11-03T16:39:48.394Z,33.20
2022-11-03T16:42:14.663Z,32.15
2022-11-03T16:44:40.972Z,31.25
2022-11-03T16:47:07.257Z,29.05
2022-11-03T16:49:33.579Z,27.60
2022-11-03T16:51:59.930Z,25.98
2022-11-03T16:54:26.190Z,27.45
2022-11-03T16:56:54.864Z,25.92
2022-11-03T16:59:21.542Z,24.25
2022-11-03T17:01:47.977Z,23.33
2022-11-03T17:04:14.371Z,22.33
2022-11-03T17:06:40.644Z,21.85
2022-11-03T17:09:07.041Z,24.65
2022-11-03T17:11:33.332Z,27.58
2022-11-03T17:16:27.560Z,32.97
2022-11-03T17:18:54.095Z,37.10
2022-11-03T17:21:20.456Z,39.60
2022-11-03T17:23:47.020Z,43.58
2022-11-03T17:26:13.353Z,45.40
2022-11-03T17:28:39.584Z,48.47
2022-11-03T17:31:05.990Z,49.38
2022-11-03T17:33:32.376Z,49.92
2022-11-03T17:35:58.670Z,48.08
2022-11-03T17:38:25.517Z,95.03
2022-11-03T17:40:51.803Z,209.95
2022-11-03T17:43:18.109Z,217.43
2022-11-03T17:45:44.667Z,193.32
2022-11-03T17:48:10.970Z,184.73
2022-11-03T17:50:37.289Z,178.02
2022-11-03T17:55:32.918Z,163.10
2022-11-03T17:57:59.503Z,274.65
2022-11-03T18:00:25.774Z,278.52
2022-11-03T18:02:52.042Z,303.05
2022-11-03T18:05:21.313Z,275.55
2022-11-03T18:12:57.325Z,242.85
2022-11-03T18:15:23.676Z,237.52
2022-11-03T18:17:50.425Z,234.63
2022-11-03T18:20:16.822Z,225.20
2022-11-03T18:22:43.178Z,216.23
2022-11-03T18:25:09.512Z,211.88
2022-11-03T18:27:35.820Z,238.45
2022-11-03T18:30:02.286Z,406.25
2022-11-03T18:32:31.818Z,375.17
2022-11-03T18:35:02.136Z,359.67
2022-11-03T18:37:28.466Z,349.90
2022-11-03T18:39:54.754Z,336.65
2022-11-03T18:45:03.094Z,316.23
2022-11-03T18:47:29.662Z,307.58
2022-11-03T18:49:55.996Z,300.50
2022-11-03T18:52:22.355Z,298.20
2022-11-03T18:54:48.765Z,286.60
2022-11-03T19:02:30.497Z,268.80
2022-11-03T19:04:56.832Z,285.92
2022-11-03T19:07:23.131Z,390.73
2022-11-03T19:09:49.440Z,413.90
2022-11-03T19:12:15.695Z,414.90
2022-11-03T19:14:42.057Z,407.98
2022-11-03T19:17:22.355Z,394.83
2022-11-03T19:19:51.091Z,381.58
2022-11-03T19:22:17.574Z,372.10
2022-11-03T19:24:44.059Z,362.70
2022-11-03T19:27:10.434Z,357.10
2022-11-03T19:29:36.779Z,404.60
2022-11-03T19:32:03.051Z,474.10
2022-11-03T19:34:29.462Z,503.10
2022-11-03T19:36:55.895Z,489.45
2022-11-03T19:39:22.203Z,463.92
2022-11-03T19:41:48.522Z,466.48
2022-11-03T19:44:15.089Z,450.60
2022-11-03T19:46:41.594Z,448.25
2022-11-03T19:49:07.894Z,433.55
2022-11-03T19:51:34.305Z,427.33
2022-11-03T19:54:00.726Z,418.17
2022-11-03T19:56:27.101Z,403.50
2022-11-03T19:58:53.428Z,399.30
2022-11-03T20:01:19.750Z,392.83
2022-11-03T20:03:46.354Z,377.10
2022-11-03T20:06:16.765Z,377.27
2022-11-03T20:08:45.815Z,367.75
2022-11-03T20:11:12.192Z,356.98
2022-11-03T20:13:38.443Z,362.25
2022-11-03T20:16:04.935Z,395.83
2022-11-03T20:18:31.234Z,426.48
2022-11-03T20:20:57.604Z,431.88
2022-11-03T20:23:24.014Z,421.60
2022-11-03T20:25:50.254Z,416.95
2022-11-03T20:28:16.474Z,400.00
2022-11-03T20:30:42.971Z,400.55
2022-11-03T20:33:09.609Z,394.02
2022-11-03T20:35:36.213Z,391.85
2022-11-03T20:38:02.617Z,377.10
2022-11-03T20:40:29.101Z,379.33
2022-11-03T20:42:55.771Z,374.90
2022-11-03T20:45:22.450Z,366.33
2022-11-03T20:47:48.775Z,353.25
2022-11-03T20:50:15.622Z,348.40
2022-11-03T20:52:42.011Z,342.00
2022-11-03T20:55:08.227Z,334.70
2022-11-03T20:57:34.473Z,330.27
2022-11-03T21:00:00.776Z,329.30
2022-11-03T21:02:27.258Z,348.33
2022-11-03T21:04:53.655Z,407.35
2022-11-03T21:07:19.932Z,440.77
2022-11-03T21:09:46.172Z,440.48
2022-11-03T21:12:12.467Z,405.75
2022-11-03T21:14:39.289Z,394.48
2022-11-03T21:17:05.607Z,384.42
2022-11-03T21:19:31.963Z,387.27
2022-11-03T21:21:58.291Z,388.27
2022-11-03T21:26:56.196Z,449.80
2022-11-03T21:29:33.122Z,487.38
2022-11-03T21:32:09.016Z,482.52
2022-11-03T21:34:35.408Z,477.52
2022-11-03T21:37:01.738Z,474.50
2022-11-03T21:39:27.984Z,463.73
2022-11-03T21:41:54.295Z,461.08
2022-11-03T21:44:20.618Z,456.70
2022-11-03T21:46:47.244Z,447.00
2022-11-03T21:49:13.676Z,445.55
2022-11-03T21:51:40.037Z,439.50
2022-11-03T21:54:06.656Z,515.15
2022-11-03T21:56:32.961Z,540.17
2022-11-03T21:58:59.852Z,552.20
2022-11-03T22:01:26.293Z,546.53
2022-11-03T22:03:52.662Z,546.20
2022-11-03T22:06:18.994Z,536.53
2022-11-03T22:08:45.382Z,530.20
2022-11-03T22:11:11.668Z,529.50
2022-11-03T22:13:37.896Z,586.55
2022-11-03T22:16:04.166Z,608.30
2022-11-03T22:18:30.455Z,600.92
2022-11-03T22:20:56.751Z,593.17
2022-11-03T22:23:23.067Z,590.05
2022-11-03T22:25:49.452Z,582.08
2022-11-03T22:28:16.123Z,576.13
2022-11-03T22:30:42.722Z,562.88
2022-11-03T22:33:09.134Z,556.65
2022-11-03T22:35:35.506Z,554.20
2022-11-03T22:38:02.064Z,550.55
2022-11-03T22:40:28.396Z,540.17
2022-11-03T22:42:54.859Z,597.55
2022-11-03T22:45:21.135Z,604.13
2022-11-03T22:47:47.752Z,599.03
2022-11-03T22:50:14.086Z,581.58
2022-11-03T22:52:40.514Z,577.70
2022-11-03T22:55:06.762Z,566.97
2022-11-03T22:57:33.111Z,558.63
2022-11-03T22:59:59.367Z,546.08
2022-11-03T23:02:26.145Z,530.70
2022-11-03T23:04:52.529Z,520.28
2022-11-03T23:07:18.942Z,514.08
2022-11-03T23:09:46.535Z,545.25
2022-11-03T23:12:12.839Z,701.15
2022-11-03T23:14:39.209Z,623.75
2022-11-03T23:17:05.552Z,618.17
2022-11-03T23:19:31.824Z,607.42
2022-11-03T23:21:58.124Z,600.47
2022-11-03T23:24:24.414Z,592.67
2022-11-03T23:26:50.928Z,733.88
2022-11-03T23:29:17.258Z,677.83
2022-11-03T23:31:43.621Z,668.83
2022-11-03T23:34:09.965Z,656.42
2022-11-03T23:36:36.197Z,700.70
2022-11-03T23:39:02.834Z,766.30
2022-11-03T23:41:29.177Z,743.47
2022-11-03T23:43:55.826Z,722.92
2022-11-03T23:46:22.113Z,710.10
2022-11-03T23:48:48.346Z,694.83
2022-11-03T23:51:14.603Z,686.88
2022-11-03T23:53:40.957Z,671.25
2022-11-03T23:56:07.255Z,671.60
2022-11-03T23:58:33.607Z,668.58
